Time;durP1;ratioP1;P1;durP2;ratioP2;P2;SDS_P1;SDS_P2;PMS_P1;PMS_P2;Temp;Humidity;BMP_temperature;BMP_pressure;BME280_temperature;BME280_humidity;BME280_pressure;Samples;Min_cycle;Max_cycle;Signal;HPM_P1;HPM_P2
2024/04/06 00:01:48;;;;;;;8.03;3.57;;;;;;;;;;5131521;28;20096;-59
2024/04/06 00:04:14;;;;;;;13.47;3.97;;;;;;;;;;5131258;28;20020;-56
2024/04/06 00:06:40;;;;;;;7.53;3.40;;;;;;;;;;5133482;28;20039;-57
2024/04/06 00:09:06;;;;;;;6.00;3.53;;;;;;;;;;5134374;28;20027;-57
2024/04/06 00:11:32;;;;;;;8.25;3.00;;;;;;;;;;5128582;28;20032;-57
2024/04/06 00:13:58;;;;;;;7.63;3.50;;;;;;;;;;5128979;28;20053;-58
2024/04/06 00:16:23;;;;;;;9.50;2.88;;;;;;;;;;5129011;28;20050;-60
2024/04/06 00:18:48;;;;;;;8.23;3.07;;;;;;;;;;5135501;28;20031;-58
2024/04/06 00:21:14;;;;;;;8.07;3.20;;;;;;;;;;5135955;28;20291;-55
2024/04/06 00:23:39;;;;;;;9.18;3.25;;;;;;;;;;5137442;28;20036;-55
2024/04/06 00:26:05;;;;;;;13.02;4.15;;;;;;;;;;5134836;28;20035;-59
2024/04/06 00:28:31;;;;;;;7.60;3.90;;;;;;;;;;5135415;28;20031;-57
2024/04/06 00:30:57;;;;;;;12.18;4.68;;;;;;;;;;5138810;28;20027;-55
2024/04/06 00:33:22;;;;;;;13.50;5.40;;;;;;;;;;5138474;28;20040;-58
2024/04/06 00:35:47;;;;;;;15.93;5.10;;;;;;;;;;5139200;28;20055;-59
2024/04/06 00:38:13;;;;;;;9.10;3.45;;;;;;;;;;5135722;28;20035;-56
2024/04/06 00:40:38;;;;;;;8.63;3.70;;;;;;;;;;5138266;28;20046;-57
2024/04/06 00:43:05;;;;;;;9.80;4.03;;;;;;;;;;5138117;28;20035;-58
2024/04/06 00:45:30;;;;;;;17.25;4.13;;;;;;;;;;5138610;28;20043;-57
2024/04/06 00:47:56;;;;;;;9.45;3.72;;;;;;;;;;5138299;28;20065;-56
2024/04/06 00:50:21;;;;;;;9.23;3.72;;;;;;;;;;5138640;28;20057;-58
2024/04/06 00:52:47;;;;;;;8.43;3.45;;;;;;;;;;5137628;28;20070;-55
2024/04/06 00:55:12;;;;;;;5.78;2.70;;;;;;;;;;5130895;28;20043;-57
2024/04/06 00:57:38;;;;;;;6.93;3.03;;;;;;;;;;5138145;28;20095;-57
2024/04/06 01:00:04;;;;;;;6.05;2.72;;;;;;;;;;5137334;28;20038;-56
2024/04/06 01:02:30;;;;;;;8.10;2.42;;;;;;;;;;5131454;28;20107;-58
2024/04/06 01:04:55;;;;;;;6.43;2.85;;;;;;;;;;5127434;28;20024;-59
2024/04/06 01:07:21;;;;;;;5.05;2.72;;;;;;;;;;5134655;28;20048;-59
2024/04/06 01:09:47;;;;;;;10.27;2.90;;;;;;;;;;5128453;28;20055;-59
2024/04/06 01:12:13;;;;;;;6.03;2.73;;;;;;;;;;5136217;28;20043;-59
2024/04/06 01:14:38;;;;;;;7.53;2.92;;;;;;;;;;5137676;28;20031;-58
2024/04/06 01:17:04;;;;;;;5.45;2.33;;;;;;;;;;5126729;28;20028;-58
2024/04/06 01:19:29;;;;;;;3.63;2.20;;;;;;;;;;5137667;28;20047;-59
2024/04/06 01:21:54;;;;;;;9.07;2.58;;;;;;;;;;5137975;28;20327;-59
2024/04/06 01:24:23;;;;;;;5.63;2.30;;;;;;;;;;5128615;28;20031;-59
2024/04/06 01:26:51;;;;;;;5.77;3.07;;;;;;;;;;5127986;28;20028;-58
2024/04/06 01:29:16;;;;;;;7.30;3.78;;;;;;;;;;5135686;28;20046;-59
2024/04/06 01:31:41;;;;;;;8.20;2.87;;;;;;;;;;5125968;28;20132;-58
2024/04/06 01:34:10;;;;;;;11.35;2.88;;;;;;;;;;5129421;28;20275;-57
2024/04/06 01:36:37;;;;;;;10.90;3.60;;;;;;;;;;5126858;28;20044;-58
2024/04/06 01:39:03;;;;;;;7.63;3.37;;;;;;;;;;5125521;28;20031;-59
2024/04/06 01:41:28;;;;;;;8.35;3.63;;;;;;;;;;5115547;28;20057;-58
2024/04/06 01:43:53;;;;;;;7.13;3.67;;;;;;;;;;5129389;28;20047;-59
2024/04/06 01:46:19;;;;;;;6.15;3.30;;;;;;;;;;5133194;28;20275;-59
2024/04/06 01:48:45;;;;;;;7.68;3.50;;;;;;;;;;5137269;28;20024;-57
2024/04/06 01:51:10;;;;;;;8.07;4.05;;;;;;;;;;5137227;28;20020;-58
2024/04/06 01:53:35;;;;;;;7.22;3.40;;;;;;;;;;5127133;28;20028;-57
2024/04/06 01:56:01;;;;;;;6.60;3.30;;;;;;;;;;5120168;28;20035;-56
2024/04/06 01:58:26;;;;;;;10.43;3.65;;;;;;;;;;5118967;28;20039;-59
2024/04/06 02:00:52;;;;;;;7.10;3.33;;;;;;;;;;5125612;28;20057;-59
2024/04/06 02:03:17;;;;;;;9.15;3.50;;;;;;;;;;5136948;28;20073;-56
2024/04/06 02:05:43;;;;;;;6.77;3.30;;;;;;;;;;5136500;28;20031;-58
2024/04/06 02:08:08;;;;;;;6.93;3.35;;;;;;;;;;5137066;28;20028;-58
2024/04/06 02:10:34;;;;;;;6.60;3.50;;;;;;;;;;5136303;28;20032;-58
2024/04/06 02:13:00;;;;;;;5.63;3.15;;;;;;;;;;5129759;28;20035;-58
2024/04/06 02:15:25;;;;;;;8.43;3.55;;;;;;;;;;5136183;28;20090;-55
2024/04/06 02:17:52;;;;;;;5.88;3.80;;;;;;;;;;5135586;28;20035;-58
2024/04/06 02:20:18;;;;;;;6.23;3.43;;;;;;;;;;5136719;28;20027;-58
2024/04/06 02:22:43;;;;;;;5.95;3.20;;;;;;;;;;5135659;28;20034;-58
2024/04/06 02:25:08;;;;;;;8.83;4.43;;;;;;;;;;5131003;28;20066;-57
2024/04/06 02:27:34;;;;;;;7.27;3.60;;;;;;;;;;5136388;28;20114;-58
2024/04/06 02:29:59;;;;;;;6.57;3.20;;;;;;;;;;5136538;28;20095;-57
2024/04/06 02:32:26;;;;;;;10.63;3.45;;;;;;;;;;5136012;28;20047;-58
2024/04/06 02:34:52;;;;;;;7.77;3.53;;;;;;;;;;5130479;28;20087;-58
2024/04/06 02:37:18;;;;;;;10.75;3.95;;;;;;;;;;5136396;28;20036;-59
2024/04/06 02:39:43;;;;;;;7.63;3.07;;;;;;;;;;5130911;28;20063;-58
2024/04/06 02:42:09;;;;;;;11.68;3.33;;;;;;;;;;5131871;28;20049;-56
2024/04/06 02:44:34;;;;;;;9.15;3.25;;;;;;;;;;5132569;28;20039;-59
2024/04/06 02:47:00;;;;;;;8.43;3.50;;;;;;;;;;5136173;28;20040;-57
2024/04/06 02:49:25;;;;;;;6.88;3.60;;;;;;;;;;5118312;28;20031;-58
2024/04/06 02:51:51;;;;;;;6.50;3.42;;;;;;;;;;5136625;28;20032;-59
2024/04/06 02:54:16;;;;;;;6.45;4.00;;;;;;;;;;5128820;28;20051;-52
2024/04/06 02:56:41;;;;;;;9.73;3.63;;;;;;;;;;5127934;28;20064;-57
2024/04/06 02:59:07;;;;;;;10.40;3.78;;;;;;;;;;5135887;28;20028;-58
2024/04/06 03:01:33;;;;;;;11.68;4.07;;;;;;;;;;5135859;28;20027;-57
2024/04/06 03:03:58;;;;;;;9.13;3.80;;;;;;;;;;5135668;28;20024;-56
2024/04/06 03:06:24;;;;;;;6.85;3.97;;;;;;;;;;5131167;28;20035;-58
2024/04/06 03:08:49;;;;;;;11.77;4.73;;;;;;;;;;5134855;28;20047;-57
2024/04/06 03:11:15;;;;;;;9.48;4.00;;;;;;;;;;5116833;28;20051;-59
2024/04/06 03:13:41;;;;;;;6.60;3.70;;;;;;;;;;5129894;28;20035;-58
2024/04/06 03:16:06;;;;;;;13.93;5.72;;;;;;;;;;5107446;28;20024;-58
2024/04/06 03:18:32;;;;;;;9.80;5.20;;;;;;;;;;5104999;28;20043;-57
2024/04/06 03:20:57;;;;;;;9.70;4.18;;;;;;;;;;5127834;28;20032;-59
2024/04/06 03:23:23;;;;;;;8.50;4.30;;;;;;;;;;5134384;28;20035;-60
2024/04/06 03:25:48;;;;;;;8.57;4.20;;;;;;;;;;5125214;28;20039;-59
2024/04/06 03:28:17;;;;;;;10.18;5.00;;;;;;;;;;5135665;28;20032;-57
2024/04/06 03:30:42;;;;;;;8.27;4.40;;;;;;;;;;5101061;28;20028;-58
2024/04/06 03:33:08;;;;;;;6.53;4.40;;;;;;;;;;5135620;28;20066;-59
2024/04/06 03:35:33;;;;;;;8.40;4.43;;;;;;;;;;5117568;28;20036;-58
2024/04/06 03:37:59;;;;;;;9.02;4.40;;;;;;;;;;5134736;28;20035;-57
2024/04/06 03:40:24;;;;;;;7.72;4.50;;;;;;;;;;5123015;28;20035;-58
2024/04/06 03:42:54;;;;;;;8.20;5.00;;;;;;;;;;5123579;28;20032;-58
2024/04/06 03:45:19;;;;;;;8.43;4.37;;;;;;;;;;5132546;28;20027;-57
2024/04/06 03:47:44;;;;;;;7.73;4.50;;;;;;;;;;5117695;28;20260;-59
2024/04/06 03:50:10;;;;;;;8.45;4.60;;;;;;;;;;5117660;28;20526;-59
2024/04/06 03:52:36;;;;;;;10.93;4.40;;;;;;;;;;5117533;28;20042;-58
2024/04/06 03:55:02;;;;;;;13.57;4.25;;;;;;;;;;5133507;28;20027;-59
2024/04/06 03:57:27;;;;;;;11.32;4.55;;;;;;;;;;5133450;28;20031;-59
2024/04/06 03:59:53;;;;;;;13.80;5.83;;;;;;;;;;5135297;28;20074;-58
2024/04/06 04:02:18;;;;;;;8.05;4.20;;;;;;;;;;5128106;28;20020;-58
2024/04/06 04:04:44;;;;;;;8.10;4.00;;;;;;;;;;5134487;28;20024;-56
2024/04/06 04:07:09;;;;;;;9.32;4.07;;;;;;;;;;5121906;28;20089;-58
2024/04/06 04:09:35;;;;;;;9.45;3.97;;;;;;;;;;5127705;28;20032;-59
2024/04/06 04:12:00;;;;;;;8.75;4.65;;;;;;;;;;5124658;28;20058;-57
2024/04/06 04:14:26;;;;;;;13.50;4.10;;;;;;;;;;5127350;28;20031;-59
2024/04/06 04:16:52;;;;;;;9.23;4.50;;;;;;;;;;5125424;28;20091;-56
2024/04/06 04:19:17;;;;;;;8.00;4.13;;;;;;;;;;5122463;28;20023;-58
2024/04/06 04:21:42;;;;;;;9.20;4.27;;;;;;;;;;5133390;28;20121;-58
2024/04/06 04:24:08;;;;;;;8.63;4.35;;;;;;;;;;5133744;28;20028;-58
2024/04/06 04:26:34;;;;;;;14.13;4.78;;;;;;;;;;5104513;28;20028;-58
2024/04/06 04:29:00;;;;;;;8.80;4.00;;;;;;;;;;5134841;28;20024;-57
2024/04/06 04:31:26;;;;;;;10.05;4.13;;;;;;;;;;5134661;28;20275;-58
2024/04/06 04:33:51;;;;;;;7.70;4.13;;;;;;;;;;5105659;28;20061;-56
2024/04/06 04:36:18;;;;;;;9.13;4.45;;;;;;;;;;5131597;28;20057;-59
2024/04/06 04:38:43;;;;;;;8.93;3.72;;;;;;;;;;5134854;28;20039;-56
2024/04/06 04:41:09;;;;;;;7.97;4.07;;;;;;;;;;5122550;28;20085;-59
2024/04/06 04:43:35;;;;;;;9.45;4.43;;;;;;;;;;5133673;28;20032;-58
2024/04/06 04:46:01;;;;;;;7.10;3.60;;;;;;;;;;5128865;28;20087;-59
2024/04/06 04:48:27;;;;;;;;;;;;;;;;;;5135183;28;20110;-60
2024/04/06 04:50:52;;;;;;;8.73;4.33;;;;;;;;;;5134863;28;19935;-59
2024/04/06 04:53:18;;;;;;;10.07;4.47;;;;;;;;;;5128919;28;20047;-59
2024/04/06 04:55:44;;;;;;;8.37;4.23;;;;;;;;;;5134893;28;20035;-59
2024/04/06 04:58:09;;;;;;;;;;;;;;;;;;5126666;28;20055;-57
2024/04/06 05:00:35;;;;;;;10.67;4.50;;;;;;;;;;5134823;28;19911;-58
2024/04/06 05:03:01;;;;;;;10.90;5.57;;;;;;;;;;5130216;28;20028;-58
2024/04/06 05:05:26;;;;;;;8.45;4.88;;;;;;;;;;5129775;28;20028;-56
2024/04/06 05:07:51;;;;;;;10.43;4.88;;;;;;;;;;5133464;28;20031;-59
2024/04/06 05:10:17;;;;;;;8.15;4.38;;;;;;;;;;5138315;28;20039;-59
2024/04/06 05:12:42;;;;;;;14.93;5.40;;;;;;;;;;5135736;28;20032;-59
2024/04/06 05:15:09;;;;;;;7.50;4.03;;;;;;;;;;5133742;28;20067;-60
2024/04/06 05:17:37;;;;;;;12.25;5.07;;;;;;;;;;5120123;28;20031;-60
2024/04/06 05:20:05;;;;;;;10.30;5.20;;;;;;;;;;5120446;28;20038;-60
2024/04/06 05:22:31;;;;;;;8.17;4.83;;;;;;;;;;5124502;28;20256;-60
2024/04/06 05:24:56;;;;;;;12.48;5.32;;;;;;;;;;5129314;28;20289;-60
2024/04/06 05:27:21;;;;;;;13.40;5.57;;;;;;;;;;5137984;28;20084;-56
2024/04/06 05:29:47;;;;;;;14.65;5.13;;;;;;;;;;5138208;28;20041;-58
2024/04/06 05:32:12;;;;;;;12.30;5.90;;;;;;;;;;5136840;28;20055;-57
2024/04/06 05:34:38;;;;;;;13.65;5.55;;;;;;;;;;5132822;28;20031;-59
2024/04/06 05:37:03;;;;;;;13.90;5.28;;;;;;;;;;5136948;28;20095;-58
2024/04/06 05:39:29;;;;;;;14.32;4.80;;;;;;;;;;5137546;28;20032;-59
2024/04/06 05:41:54;;;;;;;11.37;4.97;;;;;;;;;;5137801;28;20049;-59
2024/04/06 05:44:22;;;;;;;9.18;4.85;;;;;;;;;;5134878;28;20055;-58
2024/04/06 05:46:47;;;;;;;11.30;4.70;;;;;;;;;;5127268;28;20047;-60
2024/04/06 05:49:13;;;;;;;10.23;4.75;;;;;;;;;;5137563;28;20285;-58
2024/04/06 05:51:39;;;;;;;10.50;4.35;;;;;;;;;;5137664;28;20095;-57
2024/04/06 05:54:04;;;;;;;11.65;5.07;;;;;;;;;;5134329;28;20049;-60
2024/04/06 05:56:30;;;;;;;9.88;4.15;;;;;;;;;;5135904;28;20050;-56
2024/04/06 05:58:55;;;;;;;9.73;4.40;;;;;;;;;;5114123;28;20020;-58
2024/04/06 06:01:21;;;;;;;7.53;3.95;;;;;;;;;;5137777;28;20043;-57
2024/04/06 06:03:47;;;;;;;10.18;4.70;;;;;;;;;;5137324;28;20024;-58
2024/04/06 06:06:13;;;;;;;19.75;4.57;;;;;;;;;;5119267;28;20114;-57
2024/04/06 06:08:39;;;;;;;13.10;4.77;;;;;;;;;;5136553;28;20027;-57
2024/04/06 06:11:05;;;;;;;10.70;4.50;;;;;;;;;;5137527;28;20259;-56
2024/04/06 06:13:30;;;;;;;10.40;4.55;;;;;;;;;;5129329;28;20063;-57
2024/04/06 06:15:57;;;;;;;8.27;4.63;;;;;;;;;;5127147;28;20028;-57
2024/04/06 06:18:22;;;;;;;7.78;3.88;;;;;;;;;;5131899;28;20059;-55
2024/04/06 06:20:48;;;;;;;8.00;4.23;;;;;;;;;;5137271;28;20027;-58
2024/04/06 06:23:13;;;;;;;12.50;4.68;;;;;;;;;;5131278;28;20088;-57
2024/04/06 06:25:40;;;;;;;7.13;4.53;;;;;;;;;;5128887;28;20027;-59
2024/04/06 06:28:05;;;;;;;;;;;;;;;;;;5123557;28;20063;-57
2024/04/06 06:30:30;;;;;;;8.57;4.07;;;;;;;;;;5136827;28;19907;-58
2024/04/06 06:32:57;;;;;;;9.60;4.07;;;;;;;;;;5136700;28;20028;-59
2024/04/06 06:35:23;;;;;;;8.13;4.23;;;;;;;;;;5129872;28;20040;-59
2024/04/06 06:37:48;;;;;;;12.82;3.72;;;;;;;;;;5130816;28;20024;-57
2024/04/06 06:40:13;;;;;;;9.50;4.10;;;;;;;;;;5136543;28;20036;-58
2024/04/06 06:42:39;;;;;;;10.20;4.22;;;;;;;;;;5134883;28;20031;-58
2024/04/06 06:45:05;;;;;;;6.35;3.92;;;;;;;;;;5107578;28;20051;-58
2024/04/06 06:47:32;;;;;;;9.07;3.60;;;;;;;;;;5135923;28;20053;-58
2024/04/06 06:49:57;;;;;;;12.38;3.40;;;;;;;;;;5136455;28;20037;-58
2024/04/06 06:52:23;;;;;;;10.95;3.65;;;;;;;;;;5136244;28;20042;-60
2024/04/06 06:54:48;;;;;;;11.00;3.20;;;;;;;;;;5127379;28;20070;-60
2024/04/06 06:57:14;;;;;;;6.40;2.90;;;;;;;;;;5123956;28;20024;-58
2024/04/06 06:59:39;;;;;;;7.15;3.08;;;;;;;;;;5135528;28;20036;-58
2024/04/06 07:02:05;;;;;;;13.77;2.97;;;;;;;;;;5136188;28;20027;-56
2024/04/06 07:04:30;;;;;;;4.63;2.95;;;;;;;;;;5131697;28;20032;-58
2024/04/06 07:06:56;;;;;;;5.80;3.07;;;;;;;;;;5135960;28;20054;-58
2024/04/06 07:09:22;;;;;;;9.00;2.87;;;;;;;;;;5126106;28;20098;-58
2024/04/06 07:11:47;;;;;;;5.93;3.07;;;;;;;;;;5118365;28;20027;-57
2024/04/06 07:14:13;;;;;;;6.32;2.55;;;;;;;;;;5127464;28;20031;-58
2024/04/06 07:16:39;;;;;;;5.95;3.03;;;;;;;;;;5126851;28;20100;-57
2024/04/06 07:19:09;;;;;;;11.48;3.03;;;;;;;;;;5129850;28;20031;-58
2024/04/06 07:21:35;;;;;;;5.93;2.67;;;;;;;;;;5129188;28;20047;-57
2024/04/06 07:24:01;;;;;;;9.77;3.13;;;;;;;;;;5135861;28;20024;-57
2024/04/06 07:26:26;;;;;;;6.55;2.75;;;;;;;;;;5133862;28;20079;-58
2024/04/06 07:28:52;;;;;;;7.53;3.40;;;;;;;;;;5133063;28;20020;-57
2024/04/06 07:31:17;;;;;;;5.78;3.50;;;;;;;;;;5135775;28;20035;-57
2024/04/06 07:33:43;;;;;;;5.07;2.97;;;;;;;;;;5135791;28;20046;-58
2024/04/06 07:36:08;;;;;;;6.47;3.05;;;;;;;;;;5127027;28;20535;-59
2024/04/06 07:38:34;;;;;;;9.02;2.83;;;;;;;;;;5118974;28;20122;-55
2024/04/06 07:41:00;;;;;;;3.47;2.20;;;;;;;;;;5132648;28;20029;-58
2024/04/06 07:43:26;;;;;;;6.10;2.85;;;;;;;;;;5135406;28;20091;-61
2024/04/06 07:45:52;;;;;;;;;;;;;;;;;;5130636;28;20024;-58
2024/04/06 07:48:18;;;;;;;6.00;2.77;;;;;;;;;;5131483;28;19975;-59
2024/04/06 07:50:46;;;;;;;4.33;2.83;;;;;;;;;;5133087;28;20071;-58
2024/04/06 07:53:12;;;;;;;4.33;2.70;;;;;;;;;;5135069;28;20034;-57
2024/04/06 07:55:38;;;;;;;;;;;;;;;;;;5126432;28;20091;-59
2024/04/06 07:58:03;;;;;;;6.70;2.85;;;;;;;;;;5134660;28;19934;-58
2024/04/06 08:00:29;;;;;;;4.82;2.67;;;;;;;;;;5123581;28;20032;-58
2024/04/06 08:02:54;;;;;;;5.05;2.33;;;;;;;;;;5119709;28;20028;-58
2024/04/06 08:05:19;;;;;;;6.30;2.87;;;;;;;;;;5130480;28;20032;-58
2024/04/06 08:07:45;;;;;;;7.80;2.70;;;;;;;;;;5127539;28;20035;-57
2024/04/06 08:10:14;;;;;;;10.50;3.10;;;;;;;;;;5128361;28;20039;-60
2024/04/06 08:12:41;;;;;;;6.70;2.63;;;;;;;;;;5133521;28;20259;-57
2024/04/06 08:15:08;;;;;;;5.63;2.43;;;;;;;;;;5131645;28;20031;-57
2024/04/06 08:17:34;;;;;;;4.83;2.67;;;;;;;;;;5130498;28;20042;-57
2024/04/06 08:20:00;;;;;;;8.57;2.67;;;;;;;;;;5135091;28;20079;-60
2024/04/06 08:22:25;;;;;;;8.90;2.55;;;;;;;;;;5134758;28;20034;-59
2024/04/06 08:24:50;;;;;;;10.57;2.15;;;;;;;;;;5131926;28;20023;-59
2024/04/06 08:27:15;;;;;;;4.87;2.20;;;;;;;;;;5133576;28;20103;-58
2024/04/06 08:29:41;;;;;;;7.17;2.33;;;;;;;;;;5121630;28;20047;-58
2024/04/06 08:32:06;;;;;;;5.00;2.10;;;;;;;;;;5113890;28;20035;-56
2024/04/06 08:34:31;;;;;;;4.63;2.30;;;;;;;;;;5135346;28;20034;-60
2024/04/06 08:36:56;;;;;;;5.93;2.33;;;;;;;;;;5134744;28;20027;-60
2024/04/06 08:39:23;;;;;;;6.95;2.17;;;;;;;;;;5131407;28;20054;-60
2024/04/06 08:41:50;;;;;;;6.27;2.20;;;;;;;;;;5131137;28;20028;-58
2024/04/06 08:44:17;;;;;;;5.07;1.70;;;;;;;;;;5127552;28;20034;-58
2024/04/06 08:46:42;;;;;;;5.47;2.00;;;;;;;;;;5130020;28;20092;-56
2024/04/06 08:49:08;;;;;;;4.40;2.30;;;;;;;;;;5134504;28;20024;-56
2024/04/06 08:51:36;;;;;;;7.13;2.30;;;;;;;;;;5138499;28;20024;-60
2024/04/06 08:54:01;;;;;;;3.23;1.53;;;;;;;;;;5138667;28;20087;-59
2024/04/06 08:56:26;;;;;;;5.53;2.00;;;;;;;;;;5116656;28;20098;-59
2024/04/06 08:58:51;;;;;;;5.20;2.00;;;;;;;;;;5136549;28;20373;-59
2024/04/06 09:01:17;;;;;;;4.63;1.83;;;;;;;;;;5137392;28;20027;-59
2024/04/06 09:03:42;;;;;;;4.40;2.00;;;;;;;;;;5138442;28;20042;-58
2024/04/06 09:06:18;;;;;;;7.90;1.97;;;;;;;;;;5134111;28;20260;-57
2024/04/06 09:08:43;;;;;;;5.78;2.15;;;;;;;;;;5138179;28;20283;-56
2024/04/06 09:11:12;;;;;;;5.05;1.77;;;;;;;;;;5138299;28;20035;-59
2024/04/06 09:13:42;;;;;;;6.07;2.03;;;;;;;;;;5120390;28;20099;-59
2024/04/06 09:16:11;;;;;;;3.03;1.70;;;;;;;;;;5133356;28;20020;-58
2024/04/06 09:18:38;;;;;;;8.47;2.00;;;;;;;;;;5122439;28;20039;-60
2024/04/06 09:21:07;;;;;;;5.87;1.80;;;;;;;;;;5120299;28;20048;-59
2024/04/06 09:23:32;;;;;;;3.87;1.83;;;;;;;;;;5138220;28;20039;-59
2024/04/06 09:25:58;;;;;;;7.75;1.83;;;;;;;;;;5136016;28;20036;-56
2024/04/06 09:28:24;;;;;;;8.93;1.90;;;;;;;;;;5137814;28;20034;-58
2024/04/06 09:30:50;;;;;;;5.47;1.73;;;;;;;;;;5131613;28;20032;-59
2024/04/06 09:33:15;;;;;;;;;;;;;;;;;;5132210;28;20081;-58
2024/04/06 09:35:41;;;;;;;7.27;1.80;;;;;;;;;;5134631;28;19908;-58
2024/04/06 09:38:06;;;;;;;;;;;;;;;;;;5132504;28;20031;-58
2024/04/06 09:40:32;;;;;;;2.87;1.60;;;;;;;;;;5137514;28;19907;-57
2024/04/06 09:42:58;;;;;;;;;;;;;;;;;;5138054;28;20047;-60
2024/04/06 09:45:23;;;;;;;6.67;1.90;;;;;;;;;;5135556;28;19908;-59
2024/04/06 09:47:48;;;;;;;;;;;;;;;;;;5136151;28;20028;-58
2024/04/06 09:50:15;;;;;;;5.63;1.70;;;;;;;;;;5136256;28;20411;-59
2024/04/06 09:52:40;;;;;;;3.03;1.60;;;;;;;;;;5123827;28;20046;-59
2024/04/06 09:55:06;;;;;;;6.03;1.73;;;;;;;;;;5129011;28;20020;-60
2024/04/06 09:57:31;;;;;;;;;;;;;;;;;;5120675;28;20051;-59
2024/04/06 10:00:00;;;;;;;4.53;1.93;;;;;;;;;;5118923;28;19966;-59
2024/04/06 10:02:31;;;;;;;5.27;1.77;;;;;;;;;;5114864;28;20032;-58
2024/04/06 10:04:56;;;;;;;7.53;2.20;;;;;;;;;;5130691;28;20028;-59
2024/04/06 10:07:22;;;;;;;;;;;;;;;;;;5130072;28;20414;-60
2024/04/06 10:09:57;;;;;;;6.82;1.80;;;;;;;;;;5119174;28;19971;-60
2024/04/06 10:12:35;;;;;;;3.53;1.70;;;;;;;;;;5131074;28;20027;-61
2024/04/06 10:15:05;;;;;;;6.20;1.88;;;;;;;;;;5136874;28;20037;-59
2024/04/06 10:17:30;;;;;;;5.15;2.00;;;;;;;;;;5118798;28;20039;-61
2024/04/06 10:19:57;;;;;;;6.00;1.75;;;;;;;;;;5122340;28;20024;-60
2024/04/06 10:22:23;;;;;;;4.97;1.63;;;;;;;;;;5115398;28;20038;-59
2024/04/06 10:25:00;;;;;;;8.47;1.77;;;;;;;;;;5136735;28;20092;-58
2024/04/06 10:27:28;;;;;;;5.53;1.80;;;;;;;;;;5136394;28;20057;-60
2024/04/06 10:29:54;;;;;;;5.20;1.80;;;;;;;;;;5136568;28;20047;-59
2024/04/06 10:32:19;;;;;;;6.37;2.27;;;;;;;;;;5136646;28;20049;-58
2024/04/06 10:34:44;;;;;;;;;;;;;;;;;;5134016;28;20032;-60
2024/04/06 10:37:10;;;;;;;4.43;1.70;;;;;;;;;;5121098;28;20345;-58
2024/04/06 10:39:36;;;;;;;;;;;;;;;;;;5135525;28;20031;-59
2024/04/06 10:42:04;;;;;;;6.00;1.30;;;;;;;;;;5136274;28;19907;-60
2024/04/06 10:44:29;;;;;;;6.93;1.83;;;;;;;;;;5136205;28;20091;-58
2024/04/06 10:46:56;;;;;;;4.78;1.33;;;;;;;;;;5124340;28;20024;-61
2024/04/06 10:49:21;;;;;;;6.10;1.40;;;;;;;;;;5128935;28;20035;-57
2024/04/06 10:51:47;;;;;;;;;;;;;;;;;;5126867;28;20031;-60
2024/04/06 10:54:12;;;;;;;8.12;1.68;;;;;;;;;;5136283;28;19938;-59
2024/04/06 10:56:37;;;;;;;6.22;1.30;;;;;;;;;;5124773;28;20042;-59
2024/04/06 10:59:04;;;;;;;5.55;2.28;;;;;;;;;;5130267;28;20024;-60
2024/04/06 11:01:37;;;;;;;3.72;1.52;;;;;;;;;;5128753;28;20019;-60
2024/04/06 11:04:05;;;;;;;7.97;1.73;;;;;;;;;;5134701;28;20050;-60
2024/04/06 11:06:31;;;;;;;5.55;1.33;;;;;;;;;;5135745;28;20039;-60
2024/04/06 11:09:00;;;;;;;8.32;1.55;;;;;;;;;;5131039;28;20028;-60
2024/04/06 11:11:27;;;;;;;4.68;1.40;;;;;;;;;;5133491;28;20016;-60
2024/04/06 11:13:55;;;;;;;5.45;1.40;;;;;;;;;;5135959;28;20024;-60
2024/04/06 11:16:20;;;;;;;4.75;1.58;;;;;;;;;;5135937;28;20028;-59
2024/04/06 11:18:46;;;;;;;3.10;1.20;;;;;;;;;;5135169;28;20050;-58
2024/04/06 11:21:13;;;;;;;13.30;1.55;;;;;;;;;;5135612;28;20019;-60
2024/04/06 11:23:40;;;;;;;3.42;1.40;;;;;;;;;;5135605;28;20103;-59
2024/04/06 11:26:05;;;;;;;2.17;0.95;;;;;;;;;;5135659;28;20034;-60
2024/04/06 11:28:31;;;;;;;5.32;1.42;;;;;;;;;;5105677;28;20103;-60
2024/04/06 11:30:58;;;;;;;6.95;1.55;;;;;;;;;;5134897;28;20099;-59
2024/04/06 11:33:24;;;;;;;3.85;1.33;;;;;;;;;;5135219;28;20060;-60
2024/04/06 11:35:49;;;;;;;3.80;1.25;;;;;;;;;;5135155;28;20039;-59
2024/04/06 11:38:14;;;;;;;6.18;1.50;;;;;;;;;;5110436;28;20031;-60
2024/04/06 11:40:47;;;;;;;8.13;1.33;;;;;;;;;;5127220;28;20051;-59
2024/04/06 11:43:12;;;;;;;2.05;1.17;;;;;;;;;;5135363;28;20073;-59
2024/04/06 11:45:37;;;;;;;6.00;1.63;;;;;;;;;;5135714;28;20027;-59
2024/04/06 11:48:03;;;;;;;3.25;1.27;;;;;;;;;;5131494;28;20027;-58
2024/04/06 11:50:29;;;;;;;8.95;1.30;;;;;;;;;;5127199;28;20059;-59
2024/04/06 11:52:54;;;;;;;5.43;1.13;;;;;;;;;;5114408;28;20042;-59
2024/04/06 11:55:20;;;;;;;6.35;1.20;;;;;;;;;;5132604;28;20049;-59
2024/04/06 11:57:45;;;;;;;5.65;1.48;;;;;;;;;;5131945;28;20027;-59
2024/04/06 12:00:11;;;;;;;5.13;1.25;;;;;;;;;;5134966;28;20040;-60
2024/04/06 12:02:41;;;;;;;5.53;1.25;;;;;;;;;;5134985;28;20051;-59
2024/04/06 12:05:07;;;;;;;3.70;1.40;;;;;;;;;;5134910;28;20031;-59
2024/04/06 12:07:33;;;;;;;3.53;1.20;;;;;;;;;;5131416;28;20051;-60
2024/04/06 12:09:59;;;;;;;3.67;1.48;;;;;;;;;;5134848;28;20038;-60
2024/04/06 12:12:24;;;;;;;6.68;1.13;;;;;;;;;;5130968;28;20027;-59
2024/04/06 12:14:50;;;;;;;4.90;0.90;;;;;;;;;;5121696;28;20032;-60
2024/04/06 12:17:22;;;;;;;2.25;0.80;;;;;;;;;;5138288;28;20071;-59
2024/04/06 12:19:47;;;;;;;3.20;1.05;;;;;;;;;;5138797;28;20059;-58
2024/04/06 12:22:13;;;;;;;2.13;1.02;;;;;;;;;;5127444;28;20034;-57
2024/04/06 12:24:40;;;;;;;2.13;1.10;;;;;;;;;;5130654;28;20028;-57
2024/04/06 12:27:05;;;;;;;4.80;1.00;;;;;;;;;;5111267;28;20027;-58
2024/04/06 12:29:31;;;;;;;4.70;1.10;;;;;;;;;;5132294;28;20057;-58
2024/04/06 12:31:56;;;;;;;1.52;1.00;;;;;;;;;;5138787;28;20035;-59
2024/04/06 12:34:22;;;;;;;4.25;1.65;;;;;;;;;;5139097;28;20032;-60
2024/04/06 12:36:47;;;;;;;2.00;0.98;;;;;;;;;;5131647;28;20083;-59
2024/04/06 12:39:12;;;;;;;4.55;1.10;;;;;;;;;;5134309;28;20035;-59
2024/04/06 12:41:38;;;;;;;3.00;1.10;;;;;;;;;;5132394;28;20035;-58
2024/04/06 12:44:03;;;;;;;5.20;1.20;;;;;;;;;;5138828;28;20035;-59
2024/04/06 12:46:29;;;;;;;4.18;1.40;;;;;;;;;;5138405;28;20049;-58
2024/04/06 12:48:54;;;;;;;3.67;1.10;;;;;;;;;;5134477;28;20028;-59
2024/04/06 12:51:20;;;;;;;3.25;1.08;;;;;;;;;;5136790;28;20031;-58
2024/04/06 12:53:46;;;;;;;3.10;1.17;;;;;;;;;;5138574;28;20027;-59
2024/04/06 12:56:11;;;;;;;3.00;1.15;;;;;;;;;;5137884;28;20035;-58
2024/04/06 12:58:37;;;;;;;2.83;1.10;;;;;;;;;;5128608;28;20043;-57
2024/04/06 13:01:04;;;;;;;2.42;1.10;;;;;;;;;;5133696;28;20052;-55
2024/04/06 13:03:29;;;;;;;2.72;1.10;;;;;;;;;;5138389;28;20053;-58
2024/04/06 13:05:59;;;;;;;2.20;0.90;;;;;;;;;;5135409;28;20028;-58
2024/04/06 13:08:25;;;;;;;10.90;1.23;;;;;;;;;;5136546;28;20019;-58
2024/04/06 13:10:51;;;;;;;3.38;1.05;;;;;;;;;;5129786;28;20039;-58
2024/04/06 13:13:16;;;;;;;3.38;1.10;;;;;;;;;;5130288;28;20027;-58
2024/04/06 13:15:43;;;;;;;4.70;1.00;;;;;;;;;;5127802;28;20054;-55
2024/04/06 13:18:09;;;;;;;3.08;1.23;;;;;;;;;;5137246;28;20038;-58
2024/04/06 13:20:34;;;;;;;3.63;0.90;;;;;;;;;;5132710;28;20058;-57
2024/04/06 13:23:01;;;;;;;1.70;1.20;;;;;;;;;;5130436;28;20043;-57
2024/04/06 13:25:26;;;;;;;3.30;0.95;;;;;;;;;;5126160;28;20101;-58
2024/04/06 13:27:52;;;;;;;2.38;0.80;;;;;;;;;;5121965;28;20039;-56
2024/04/06 13:30:18;;;;;;;3.42;0.90;;;;;;;;;;5131741;28;20032;-58
2024/04/06 13:32:43;;;;;;;2.95;0.90;;;;;;;;;;5132422;28;20055;-56
2024/04/06 13:35:09;;;;;;;4.63;0.93;;;;;;;;;;5137475;28;20456;-58
2024/04/06 13:37:34;;;;;;;3.67;1.08;;;;;;;;;;5137626;28;20035;-59
2024/04/06 13:40:07;;;;;;;3.08;1.10;;;;;;;;;;5137552;28;20024;-59
2024/04/06 13:42:40;;;;;;;4.30;1.15;;;;;;;;;;5137336;28;20051;-59
2024/04/06 13:45:08;;;;;;;3.88;1.15;;;;;;;;;;5133933;28;20085;-59
2024/04/06 13:47:34;;;;;;;3.80;1.10;;;;;;;;;;5137129;28;20041;-59
2024/04/06 13:49:59;;;;;;;6.50;1.25;;;;;;;;;;5126101;28;20052;-59
2024/04/06 13:52:24;;;;;;;2.97;0.63;;;;;;;;;;5123111;28;20091;-60
2024/04/06 13:54:50;;;;;;;4.22;1.00;;;;;;;;;;5137459;28;20035;-59
2024/04/06 13:57:15;;;;;;;2.40;0.98;;;;;;;;;;5119334;28;20070;-58
2024/04/06 13:59:40;;;;;;;4.65;1.13;;;;;;;;;;5137108;28;20035;-59
2024/04/06 14:02:05;;;;;;;3.15;0.80;;;;;;;;;;5130354;28;20032;-59
2024/04/06 14:04:31;;;;;;;6.55;1.35;;;;;;;;;;5123562;28;20087;-59
2024/04/06 14:06:56;;;;;;;4.30;1.10;;;;;;;;;;5133660;28;20031;-60
2024/04/06 14:09:25;;;;;;;2.67;1.15;;;;;;;;;;5136931;28;20110;-63
2024/04/06 14:11:51;;;;;;;3.33;1.20;;;;;;;;;;5132724;28;20039;-59
2024/04/06 14:14:18;;;;;;;2.88;1.00;;;;;;;;;;5137235;28;20027;-58
2024/04/06 14:16:44;;;;;;;7.32;1.13;;;;;;;;;;5132124;28;20096;-59
2024/04/06 14:19:09;;;;;;;6.13;1.00;;;;;;;;;;5132378;28;20024;-60
2024/04/06 14:21:35;;;;;;;2.42;1.10;;;;;;;;;;5130703;28;20030;-59
2024/04/06 14:24:00;;;;;;;4.65;1.17;;;;;;;;;;5136979;28;20024;-59
2024/04/06 14:26:26;;;;;;;4.55;0.90;;;;;;;;;;5136621;28;20039;-60
2024/04/06 14:28:52;;;;;;;8.98;1.30;;;;;;;;;;5134601;28;20036;-58
2024/04/06 14:31:18;;;;;;;12.50;1.20;;;;;;;;;;5130509;28;20050;-61
2024/04/06 14:33:43;;;;;;;5.65;1.00;;;;;;;;;;5118584;28;20095;-58
2024/04/06 14:36:09;;;;;;;4.93;1.05;;;;;;;;;;5130836;28;20027;-56
2024/04/06 14:38:34;;;;;;;5.97;1.13;;;;;;;;;;5135788;28;20024;-57